Aérodrome :
LOGIN :

S'inscrire | Disclaimer

   EN    FR    IT 

 










Légende :    VFR   VFR Marginal   IFR   IFR Intensif   IFR Très Intensif
Visi : 
Plafond : 
>= 8 km
>= 3000ft
5 à 8 km
1000 à 3000 ft
1500m à 5 km
500 à 1000 ft
800 à 1500m
200 à 500 ft
< 800m
< 200 ft
Symboles :   Orages  Brouillard  Fortes neiges  Fortes précipitations  Vent > 20 kt
SIGMETs :   Divers  Orages  Givrage  Turbulence  Onde Orograph.  Cendres Volcan.







- Altitude de l'aérodrome : 18 ft
- Code IATA : AJA
- Voir les cartes d'approche


LFKJ - Ajaccio

DERNIER METAR :
  • 230830Z AUTO 31009G19KT 250V350 9999 -TSRA FEW009/// OVC034/// ///CB 20/17 Q1015 TEMPO SHRA

METARs EXPIRÉS :
  • 230800Z AUTO 18004KT 9999 TS FEW027/// SCT032/// BKN054/// ///CB 24/20 Q1013 TEMPO VRB15G25KT
  • 230730Z AUTO VRB03KT 9999 FEW056/// BKN230/// ///CB 24/20 Q1014 TEMPO VRB15G25KT TSRA
  • 230700Z AUTO VRB03KT 9999 SCT054/// BKN094/// ///CB 22/19 Q1014 TEMPO VRB15G25KT TSRA
  • 230630Z AUTO 03004KT 9999 SCT084 SCT120 21/20 Q1014 TEMPO SHRA SCT020CB BECMG 24010KT
  • 230600Z AUTO 05003KT 9999 FEW040/// BKN074/// OVC096/// ///TCU 21/19 Q1014 TEMPO SHRA SCT020CB BECMG 24010KT

TAF TAF LFKJ
Valide du 23 à 09h jusqu'au 24 à 09h UTC


230800Z 2309/2409 23010KT 9999 FEW030 BKN060
TEMPO 2309/2310 BKN012 FEW020CB
TEMPO 2309/2311 SHRA SCT020CB
PROB40
TEMPO 2309/2310 VRB15G25KT TSRA BKN025CB
BECMG 2310/2312 NSW SCT030
ATIS : +33 4 95 23 59 85
Pas de NOTAMs connus pour ce terrain.



MET'MAP, la Météo Aéronautique d'un coup d'oeil ! - Copyright ORBIFLY Décembre 2007 - Disclaimer

ORBIFLY MET'MAP TEAM :

Programmation & Développement : Alexandra Zaïnal
Conception & Développement : Baudouin d'Aumeries
Co-Programmation & Développement : Marc-Olivier Méhu
Soutien technique & logistique : Manuel Goepfert

Contact : metmap@orbifly.com




SOURCES & CREDITS :

   NOAA